Weather History for KPPA - November, 2012

Change the Weather History Date:

Saturday, November 17, 2012

  Actual Average Record
Temperature  
Mean Temperature 50 °F -  
Max Temperature 62 °F 58 °F 78 °F (1967)
Min Temperature 37 °F 32 °F 7 °F (2014)
Degree Days  
Heating Degree Days 16    
Moisture  
Dew Point 36 °F    
Average Humidity 60    
Maximum Humidity 87    
Minimum Humidity 39    
Precipitation  
Precipitation 0.00 in - - ()
Sea Level Pressure  
Sea Level Pressure 30.20 in    
Wind  
Wind Speed 17 mph (South)    
Max Wind Speed 25 mph    
Max Gust Speed 36 mph    
Visibility 10 miles    
Events      
Averages and records for this station are not official NWS values.
T = Trace of Precipitation, MM = Missing Value Source: NWS Daily Summary

Daily Weather History Graph

Daily Weather History Graph

Search for Another Location

Airport or City:

Trip Planner

Search our weather history database for the weather conditions in past years. The results will help you decide how hot, cold, wet, or windy it might be!

Date:

Astronomy

Nov. 17, 2012 Rise Set
Actual Time 7:22 AM CST 5:35 PM CST
Civil Twilight 6:54 AM CST 6:02 PM CST
Nautical Twilight 6:23 AM CST 6:33 PM CST
Astronomical Twilight 5:53 AM CST 7:04 PM CST
Moon 11:08 AM CST (11/17) 9:47 PM CST (11/17)
Length of Visible Light 11h 08m
Length of Day
10h 13m
Waxing Crescent, 20% of the Moon is Illuminated
Nov 17
Waxing Crescent
Nov 20
First Quarter
Nov 28
Full
Dec 6
Last Quarter
Dec 13
New

Hourly Weather History & Observations

Time (CST) Temp. Windchill Dew Point Humidity Pressure Visibility Wind Dir Wind Speed Gust Speed Precip Events Conditions
12:15 AM 42.8 °F 34.8 °F 33.8 °F 70% 30.27 in 10.0 mi South 17.3 mph 20.7 mph N/A   Clear
12:35 AM 42.8 °F 35.1 °F 33.8 °F 70% 30.27 in 10.0 mi South 16.1 mph - N/A   Clear
12:55 AM 42.8 °F 34.8 °F 33.8 °F 70% 30.26 in 10.0 mi South 17.3 mph 23.0 mph N/A   Clear
1:15 AM 42.8 °F 34.8 °F 33.8 °F 70% 30.26 in 10.0 mi South 17.3 mph - N/A   Clear
1:35 AM 42.8 °F 35.1 °F 33.8 °F 70% 30.25 in 10.0 mi South 16.1 mph - N/A   Clear
1:55 AM 42.8 °F 34.8 °F 33.8 °F 70% 30.25 in 10.0 mi South 17.3 mph - N/A   Clear
2:15 AM 41.0 °F 32.8 °F 33.8 °F 76% 30.25 in 10.0 mi South 16.1 mph 20.7 mph N/A   Clear
2:35 AM 41.0 °F 33.1 °F 33.8 °F 76% 30.25 in 10.0 mi South 15.0 mph 23.0 mph N/A   Clear
2:55 AM 42.8 °F 34.8 °F 32.0 °F 66% 30.24 in 10.0 mi South 17.3 mph 21.9 mph N/A   Clear
3:15 AM 41.0 °F 32.5 °F 32.0 °F 70% 30.24 in 10.0 mi South 17.3 mph 21.9 mph N/A   Clear
3:35 AM 42.8 °F 34.8 °F 32.0 °F 66% 30.24 in 10.0 mi South 17.3 mph 23.0 mph N/A   Clear
3:55 AM 41.0 °F 32.8 °F 32.0 °F 70% 30.24 in 10.0 mi South 16.1 mph - N/A   Clear
4:15 AM 41.0 °F 32.8 °F 32.0 °F 70% 30.24 in 10.0 mi South 16.1 mph - N/A   Clear
4:35 AM 41.0 °F 33.5 °F 32.0 °F 70% 30.24 in 10.0 mi South 13.8 mph - N/A   Clear
4:55 AM 41.0 °F 33.1 °F 32.0 °F 70% 30.24 in 10.0 mi South 15.0 mph - N/A   Clear
5:15 AM 39.2 °F 31.6 °F 32.0 °F 75% 30.23 in 10.0 mi South 12.7 mph - N/A   Clear
5:35 AM 37.4 °F 29.3 °F 32.0 °F 81% 30.24 in 10.0 mi South 12.7 mph - N/A   Clear
5:55 AM 37.4 °F 29.3 °F 32.0 °F 81% 30.24 in 10.0 mi South 12.7 mph - N/A   Clear
6:15 AM 37.4 °F 29.3 °F 32.0 °F 81% 30.24 in 10.0 mi South 12.7 mph - N/A   Clear
6:35 AM 37.4 °F 28.9 °F 32.0 °F 81% 30.24 in 10.0 mi South 13.8 mph - N/A   Clear
6:55 AM 37.4 °F 30.3 °F 32.0 °F 81% 30.24 in 10.0 mi South 10.4 mph - N/A   Clear
7:15 AM 37.4 °F 29.3 °F 33.8 °F 87% 30.24 in 10.0 mi South 12.7 mph - N/A   Clear
7:35 AM 39.2 °F 30.8 °F 33.8 °F 81% 30.24 in 10.0 mi South 15.0 mph 19.6 mph N/A   Clear
7:55 AM 41.0 °F 33.1 °F 33.8 °F 76% 30.24 in 10.0 mi South 15.0 mph - N/A   Clear
8:15 AM 42.8 °F 35.1 °F 35.6 °F 76% 30.24 in 10.0 mi SSW 16.1 mph - N/A   Clear
8:35 AM 44.6 °F 37.8 °F 35.6 °F 71% 30.24 in 10.0 mi South 15.0 mph - N/A   Clear
8:55 AM 48.2 °F - 37.4 °F 66% 30.25 in 10.0 mi SSW 19.6 mph 24.2 mph N/A   Clear
9:15 AM 50.0 °F - 37.4 °F 62% 30.24 in 10.0 mi SSW 18.4 mph 23.0 mph N/A   Clear
9:35 AM 51.8 °F - 39.2 °F 62% 30.25 in 10.0 mi SSW 21.9 mph 26.5 mph N/A   Clear
9:55 AM 53.6 °F - 41.0 °F 62% 30.24 in 10.0 mi SSW 24.2 mph 28.8 mph N/A   Clear
10:15 AM 55.4 °F - 41.0 °F 58% 30.25 in 10.0 mi SSW 25.3 mph 35.7 mph N/A   Clear
10:35 AM 55.4 °F - 41.0 °F 58% 30.25 in 10.0 mi SSW 25.3 mph 28.8 mph N/A   Clear
11:55 AM 59.0 °F - 41.0 °F 51% 30.23 in 10.0 mi SW 21.9 mph 28.8 mph N/A   Clear
12:15 PM 59.0 °F - 41.0 °F 51% 30.22 in 10.0 mi SSW 23.0 mph 31.1 mph N/A   Clear
12:35 PM 60.8 °F - 41.0 °F 48% 30.21 in 10.0 mi SSW 20.7 mph 28.8 mph N/A   Clear
12:55 PM 60.8 °F - 41.0 °F 48% 30.19 in 10.0 mi SSW 19.6 mph 25.3 mph N/A   Clear
1:15 PM 62.6 °F - 41.0 °F 45% 30.19 in 10.0 mi South 24.2 mph 29.9 mph N/A   Clear
1:35 PM 62.6 °F - 41.0 °F 45% 30.17 in 10.0 mi South 20.7 mph 27.6 mph N/A   Clear
1:55 PM 62.6 °F - 39.2 °F 42% 30.17 in 10.0 mi South 24.2 mph 29.9 mph N/A   Clear
2:15 PM 62.6 °F - 37.4 °F 39% 30.16 in 10.0 mi SSW 21.9 mph 29.9 mph N/A   Clear
2:35 PM 62.6 °F - 39.2 °F 42% 30.16 in 10.0 mi South 21.9 mph 31.1 mph N/A   Clear
2:55 PM 62.6 °F - 37.4 °F 39% 30.16 in 10.0 mi South 23.0 mph - N/A   Clear
3:15 PM 62.6 °F - 37.4 °F 39% 30.16 in 10.0 mi South 19.6 mph 24.2 mph N/A   Clear
3:35 PM 62.6 °F - 37.4 °F 39% 30.16 in 10.0 mi South 17.3 mph 26.5 mph N/A   Clear
3:55 PM 60.8 °F - 37.4 °F 42% 30.16 in 10.0 mi SSW 18.4 mph 24.2 mph N/A   Clear
4:15 PM 60.8 °F - 37.4 °F 42% 30.16 in 10.0 mi South 20.7 mph 26.5 mph N/A   Clear
4:35 PM 59.0 °F - 37.4 °F 45% 30.16 in 10.0 mi South 20.7 mph 24.2 mph N/A   Clear
4:55 PM 59.0 °F - 37.4 °F 45% 30.16 in 10.0 mi SSW 18.4 mph 24.2 mph N/A   Clear
5:15 PM 57.2 °F - 37.4 °F 48% 30.16 in 10.0 mi South 11.5 mph - N/A   Clear
5:35 PM 57.2 °F - 39.2 °F 51% 30.15 in 10.0 mi South 12.7 mph - N/A   Clear
5:55 PM 55.4 °F - 39.2 °F 54% 30.14 in 10.0 mi South 11.5 mph 18.4 mph N/A   Clear
6:15 PM 55.4 °F - 39.2 °F 54% 30.15 in 10.0 mi South 11.5 mph - N/A   Clear
6:35 PM 55.4 °F - 37.4 °F 51% 30.15 in 10.0 mi South 13.8 mph 20.7 mph N/A   Clear
6:55 PM 55.4 °F - 37.4 °F 51% 30.15 in 10.0 mi South 16.1 mph - N/A   Clear
7:15 PM 55.4 °F - 39.2 °F 54% 30.16 in 10.0 mi South 16.1 mph 21.9 mph N/A   Clear
7:35 PM 53.6 °F - 37.4 °F 54% 30.16 in 10.0 mi South 17.3 mph 21.9 mph N/A   Clear
7:55 PM 53.6 °F - 39.2 °F 58% 30.15 in 10.0 mi South 17.3 mph 20.7 mph N/A   Clear
8:15 PM 53.6 °F - 37.4 °F 54% 30.15 in 10.0 mi South 18.4 mph - N/A   Clear
8:35 PM 53.6 °F - 37.4 °F 54% 30.16 in 10.0 mi South 18.4 mph 23.0 mph N/A   Clear
8:55 PM 51.8 °F - 37.4 °F 58% 30.16 in 10.0 mi South 16.1 mph 21.9 mph N/A   Clear
9:15 PM 51.8 °F - 37.4 °F 58% 30.16 in 10.0 mi South 16.1 mph 21.9 mph N/A   Clear
9:35 PM 51.8 °F - 37.4 °F 58% 30.16 in 10.0 mi South 16.1 mph 20.7 mph N/A   Clear
9:55 PM 51.8 °F - 37.4 °F 58% 30.16 in 10.0 mi South 16.1 mph 21.9 mph N/A   Clear
10:15 PM 50.0 °F - 35.6 °F 58% 30.15 in 10.0 mi South 17.3 mph - N/A   Clear
10:35 PM 50.0 °F - 35.6 °F 58% 30.14 in 10.0 mi South 17.3 mph 23.0 mph N/A   Clear
10:55 PM 50.0 °F - 37.4 °F 62% 30.14 in 10.0 mi South 19.6 mph 25.3 mph N/A   Clear
11:15 PM 50.0 °F - 37.4 °F 62% 30.14 in 10.0 mi South 20.7 mph 25.3 mph N/A   Clear
11:35 PM 50.0 °F - 37.4 °F 62% 30.13 in 10.0 mi South 19.6 mph 24.2 mph N/A   Clear
11:55 PM 51.8 °F - 37.4 °F 58% 30.13 in 10.0 mi South 21.9 mph 26.5 mph N/A   Clear